sensor_id;sensor_type;location;lat;lon;timestamp;pressure;altitude;pressure_sealevel;temperature;humidity
26083;BME280;13848;49.018;12.078;2022-11-15T00:01:23;97689.34;;;5.21;75.60
26083;BME280;13848;49.018;12.078;2022-11-15T00:03:55;97677.28;;;5.10;75.76
26083;BME280;13848;49.018;12.078;2022-11-15T00:06:21;97685.16;;;5.12;75.52
26083;BME280;13848;49.018;12.078;2022-11-15T00:08:47;97678.50;;;5.07;75.91
26083;BME280;13848;49.018;12.078;2022-11-15T00:11:13;97678.72;;;5.06;75.40
26083;BME280;13848;49.018;12.078;2022-11-15T00:13:41;97677.59;;;5.00;76.24
26083;BME280;13848;49.018;12.078;2022-11-15T00:16:08;97671.06;;;5.03;75.94
26083;BME280;13848;49.018;12.078;2022-11-15T00:18:34;97668.09;;;4.98;75.87
26083;BME280;13848;49.018;12.078;2022-11-15T00:21:04;97676.31;;;4.96;75.55
26083;BME280;13848;49.018;12.078;2022-11-15T00:23:30;97679.53;;;4.92;76.39
26083;BME280;13848;49.018;12.078;2022-11-15T00:25:57;97681.66;;;4.96;75.97
26083;BME280;13848;49.018;12.078;2022-11-15T00:28:24;97676.31;;;4.96;76.43
26083;BME280;13848;49.018;12.078;2022-11-15T00:30:51;97674.03;;;4.93;76.16
26083;BME280;13848;49.018;12.078;2022-11-15T00:33:17;97676.31;;;4.96;75.81
26083;BME280;13848;49.018;12.078;2022-11-15T00:35:44;97675.03;;;4.92;75.33
26083;BME280;13848;49.018;12.078;2022-11-15T00:38:09;97669.44;;;4.87;75.75
26083;BME280;13848;49.018;12.078;2022-11-15T00:40:36;97670.44;;;4.86;76.43
26083;BME280;13848;49.018;12.078;2022-11-15T00:43:02;97662.41;;;4.86;75.37
26083;BME280;13848;49.018;12.078;2022-11-15T00:45:27;97663.97;;;4.80;75.98
26083;BME280;13848;49.018;12.078;2022-11-15T00:47:55;97655.97;;;4.80;76.18
26083;BME280;13848;49.018;12.078;2022-11-15T00:50:21;97655.88;;;4.74;76.23
26083;BME280;13848;49.018;12.078;2022-11-15T00:52:47;97655.25;;;4.72;76.29
26083;BME280;13848;49.018;12.078;2022-11-15T00:55:14;97654.25;;;4.73;76.00
26083;BME280;13848;49.018;12.078;2022-11-15T00:57:41;97659.97;;;4.70;75.72
26083;BME280;13848;49.018;12.078;2022-11-15T01:00:07;97650.47;;;4.67;76.49
26083;BME280;13848;49.018;12.078;2022-11-15T01:02:51;97654.50;;;4.63;76.13
26083;BME280;13848;49.018;12.078;2022-11-15T01:05:19;97650.38;;;4.61;76.76
26083;BME280;13848;49.018;12.078;2022-11-15T01:07:46;97649.47;;;4.53;76.19
26083;BME280;13848;49.018;12.078;2022-11-15T01:10:12;97656.06;;;4.58;76.09
26083;BME280;13848;49.018;12.078;2022-11-15T01:12:38;97649.56;;;4.60;75.78
26083;BME280;13848;49.018;12.078;2022-11-15T01:15:04;97647.91;;;4.59;75.87
26083;BME280;13848;49.018;12.078;2022-11-15T01:17:31;97645.41;;;4.58;76.13
26083;BME280;13848;49.018;12.078;2022-11-15T01:19:57;97645.78;;;4.54;75.97
26083;BME280;13848;49.018;12.078;2022-11-15T01:22:24;97640.34;;;4.63;75.52
26083;BME280;13848;49.018;12.078;2022-11-15T01:24:50;97645.41;;;4.58;75.90
26083;BME280;13848;49.018;12.078;2022-11-15T01:27:16;97643.75;;;4.57;76.09
26083;BME280;13848;49.018;12.078;2022-11-15T01:29:42;97639.53;;;4.47;76.25
26083;BME280;13848;49.018;12.078;2022-11-15T01:32:08;97633.63;;;4.37;76.64
26083;BME280;13848;49.018;12.078;2022-11-15T01:34:34;97630.75;;;4.39;76.50
26083;BME280;13848;49.018;12.078;2022-11-15T01:37:00;97620.91;;;4.39;76.83
26083;BME280;13848;49.018;12.078;2022-11-15T01:39:27;97622.13;;;4.37;76.65
26083;BME280;13848;49.018;12.078;2022-11-15T01:41:54;97621.75;;;4.40;76.79
26083;BME280;13848;49.018;12.078;2022-11-15T01:44:37;97614.03;;;4.30;76.66
26083;BME280;13848;49.018;12.078;2022-11-15T01:47:06;97608.84;;;4.28;76.69
26083;BME280;13848;49.018;12.078;2022-11-15T01:49:38;97599.66;;;4.31;77.04
26083;BME280;13848;49.018;12.078;2022-11-15T01:52:09;97602.06;;;4.26;76.51
26083;BME280;13848;49.018;12.078;2022-11-15T01:54:38;97597.06;;;4.23;76.47
26083;BME280;13848;49.018;12.078;2022-11-15T01:57:09;97592.75;;;4.22;77.22
26083;BME280;13848;49.018;12.078;2022-11-15T01:59:36;97596.09;;;4.24;76.45
26083;BME280;13848;49.018;12.078;2022-11-15T02:02:03;97602.25;;;4.24;76.58
26083;BME280;13848;49.018;12.078;2022-11-15T02:04:32;97596.09;;;4.24;75.98
26083;BME280;13848;49.018;12.078;2022-11-15T02:06:58;97592.75;;;4.22;77.10
26083;BME280;13848;49.018;12.078;2022-11-15T02:09:25;97590.38;;;4.27;76.83
26083;BME280;13848;49.018;12.078;2022-11-15T02:11:54;97583.38;;;4.26;76.27
26083;BME280;13848;49.018;12.078;2022-11-15T02:14:21;97578.03;;;4.26;76.31
26083;BME280;13848;49.018;12.078;2022-11-15T02:16:55;97575.09;;;4.21;76.44
26083;BME280;13848;49.018;12.078;2022-11-15T02:19:40;97579.78;;;4.19;76.15
26083;BME280;13848;49.018;12.078;2022-11-15T02:22:22;97576.22;;;4.12;76.68
26083;BME280;13848;49.018;12.078;2022-11-15T02:25:03;97577.09;;;4.04;76.75
26083;BME280;13848;49.018;12.078;2022-11-15T02:27:51;97568.91;;;4.06;76.73
26083;BME280;13848;49.018;12.078;2022-11-15T02:30:23;97569.09;;;4.04;76.39
26083;BME280;13848;49.018;12.078;2022-11-15T02:32:52;97560.28;;;4.04;76.86
26083;BME280;13848;49.018;12.078;2022-11-15T02:35:29;97565.81;;;4.02;76.28
26083;BME280;13848;49.018;12.078;2022-11-15T02:38:00;97570.75;;;4.05;76.41
26083;BME280;13848;49.018;12.078;2022-11-15T02:40:37;97568.28;;;4.04;76.53
26083;BME280;13848;49.018;12.078;2022-11-15T02:43:08;97557.13;;;4.00;75.93
26083;BME280;13848;49.018;12.078;2022-11-15T02:45:41;97550.97;;;3.99;76.19
26083;BME280;13848;49.018;12.078;2022-11-15T02:48:11;97551.72;;;3.93;76.94
26083;BME280;13848;49.018;12.078;2022-11-15T02:50:38;97555.31;;;3.86;76.47
26083;BME280;13848;49.018;12.078;2022-11-15T02:53:04;97555.78;;;3.89;77.42
26083;BME280;13848;49.018;12.078;2022-11-15T02:55:31;97551.34;;;3.96;76.59
26083;BME280;13848;49.018;12.078;2022-11-15T02:58:09;97537.09;;;3.89;76.45
26083;BME280;13848;49.018;12.078;2022-11-15T03:00:45;97545.56;;;3.93;76.58
26083;BME280;13848;49.018;12.078;2022-11-15T03:03:24;97543.81;;;3.85;76.98
26083;BME280;13848;49.018;12.078;2022-11-15T03:06:03;97540.84;;;3.80;76.68
26083;BME280;13848;49.018;12.078;2022-11-15T03:08:38;97535.72;;;3.79;76.84
26083;BME280;13848;49.018;12.078;2022-11-15T03:11:11;97543.19;;;3.83;76.62
26083;BME280;13848;49.018;12.078;2022-11-15T03:13:44;97548.13;;;3.86;76.83
26083;BME280;13848;49.018;12.078;2022-11-15T03:16:19;97542.50;;;3.81;77.00
26083;BME280;13848;49.018;12.078;2022-11-15T03:18:48;97548.84;;;3.80;76.71
26083;BME280;13848;49.018;12.078;2022-11-15T03:21:19;97553.00;;;3.83;76.99
26083;BME280;13848;49.018;12.078;2022-11-15T03:23:47;97557.88;;;3.79;76.91
26083;BME280;13848;49.018;12.078;2022-11-15T03:26:16;97548.38;;;3.77;76.77
26083;BME280;13848;49.018;12.078;2022-11-15T03:28:48;97548.56;;;3.75;76.80
26083;BME280;13848;49.018;12.078;2022-11-15T03:31:19;97548.94;;;3.72;77.31
26083;BME280;13848;49.018;12.078;2022-11-15T03:33:48;97548.28;;;3.70;76.87
26083;BME280;13848;49.018;12.078;2022-11-15T03:36:14;97546.19;;;3.65;77.49
26083;BME280;13848;49.018;12.078;2022-11-15T03:38:42;97545.63;;;3.70;76.69
26083;BME280;13848;49.018;12.078;2022-11-15T03:41:17;97541.09;;;3.70;76.73
26083;BME280;13848;49.018;12.078;2022-11-15T03:43:53;97546.44;;;3.70;76.72
26083;BME280;13848;49.018;12.078;2022-11-15T03:46:25;97537.28;;;3.73;76.64
26083;BME280;13848;49.018;12.078;2022-11-15T03:49:02;97543.34;;;3.82;76.93
26083;BME280;13848;49.018;12.078;2022-11-15T03:51:30;97537.19;;;3.81;76.35
26083;BME280;13848;49.018;12.078;2022-11-15T03:53:56;97536.72;;;3.78;76.71
26083;BME280;13848;49.018;12.078;2022-11-15T03:56:22;97540.56;;;3.75;76.61
26083;BME280;13848;49.018;12.078;2022-11-15T03:58:49;97542.31;;;3.68;76.93
26083;BME280;13848;49.018;12.078;2022-11-15T04:01:15;97530.81;;;3.67;76.79
26083;BME280;13848;49.018;12.078;2022-11-15T04:03:42;97533.84;;;3.64;77.32
26083;BME280;13848;49.018;12.078;2022-11-15T04:06:08;97537.72;;;3.62;76.93
26083;BME280;13848;49.018;12.078;2022-11-15T04:08:34;97524.91;;;3.57;77.09
26083;BME280;13848;49.018;12.078;2022-11-15T04:11:00;97529.97;;;3.52;77.64
26083;BME280;13848;49.018;12.078;2022-11-15T04:13:26;97525.47;;;3.53;77.29
26083;BME280;13848;49.018;12.078;2022-11-15T04:15:52;97517.66;;;3.51;77.00
26083;BME280;13848;49.018;12.078;2022-11-15T04:18:18;97519.50;;;3.51;77.21
26083;BME280;13848;49.018;12.078;2022-11-15T04:20:45;97511.84;;;3.47;77.70
26083;BME280;13848;49.018;12.078;2022-11-15T04:23:13;97510.84;;;3.49;77.63
26083;BME280;13848;49.018;12.078;2022-11-15T04:25:40;97507.53;;;3.46;77.63
26083;BME280;13848;49.018;12.078;2022-11-15T04:28:06;97502.56;;;3.43;78.02
26083;BME280;13848;49.018;12.078;2022-11-15T04:30:32;97499.53;;;3.46;77.52
26083;BME280;13848;49.018;12.078;2022-11-15T04:32:58;97497.53;;;3.49;77.28
26083;BME280;13848;49.018;12.078;2022-11-15T04:35:24;97498.50;;;3.47;77.39
26083;BME280;13848;49.018;12.078;2022-11-15T04:37:52;97506.34;;;3.49;77.35
26083;BME280;13848;49.018;12.078;2022-11-15T04:40:18;97497.06;;;3.45;77.56
26083;BME280;13848;49.018;12.078;2022-11-15T04:42:44;97511.22;;;3.45;77.31
26083;BME280;13848;49.018;12.078;2022-11-15T04:45:10;97513.25;;;3.43;77.87
26083;BME280;13848;49.018;12.078;2022-11-15T04:47:36;97516.53;;;3.45;77.97
26083;BME280;13848;49.018;12.078;2022-11-15T04:50:03;97500.84;;;3.51;77.96
26083;BME280;13848;49.018;12.078;2022-11-15T04:52:29;97505.16;;;3.52;78.15
26083;BME280;13848;49.018;12.078;2022-11-15T04:54:56;97501.47;;;3.53;77.33
26083;BME280;13848;49.018;12.078;2022-11-15T04:57:22;97497.78;;;3.54;77.51
26083;BME280;13848;49.018;12.078;2022-11-15T04:59:48;97497.69;;;3.47;77.90
26083;BME280;13848;49.018;12.078;2022-11-15T05:02:14;97497.69;;;3.47;77.89
26083;BME280;13848;49.018;12.078;2022-11-15T05:04:40;97503.22;;;3.45;78.15
26083;BME280;13848;49.018;12.078;2022-11-15T05:07:06;97499.81;;;3.52;77.98
26083;BME280;13848;49.018;12.078;2022-11-15T05:09:32;97492.47;;;3.54;78.07
26083;BME280;13848;49.018;12.078;2022-11-15T05:11:59;97487.31;;;3.52;77.75
26083;BME280;13848;49.018;12.078;2022-11-15T05:14:26;97487.84;;;3.47;78.06
26083;BME280;13848;49.018;12.078;2022-11-15T05:16:52;97479.22;;;3.45;78.13
26083;BME280;13848;49.018;12.078;2022-11-15T05:19:18;97481.59;;;3.40;78.33
26083;BME280;13848;49.018;12.078;2022-11-15T05:21:44;97477.19;;;3.47;78.06
26083;BME280;13848;49.018;12.078;2022-11-15T05:24:10;97473.56;;;3.49;78.57
26083;BME280;13848;49.018;12.078;2022-11-15T05:26:36;97477.56;;;3.44;78.49
26083;BME280;13848;49.018;12.078;2022-11-15T05:29:04;97464.59;;;3.41;78.31
26083;BME280;13848;49.018;12.078;2022-11-15T05:31:30;97467.25;;;3.41;78.30
26083;BME280;13848;49.018;12.078;2022-11-15T05:33:56;97471.31;;;3.37;77.81
26083;BME280;13848;49.018;12.078;2022-11-15T05:36:28;97472.50;;;3.35;78.47
26083;BME280;13848;49.018;12.078;2022-11-15T05:38:55;97475.34;;;3.33;78.59
26083;BME280;13848;49.018;12.078;2022-11-15T05:41:26;97468.38;;;3.32;78.20
26083;BME280;13848;49.018;12.078;2022-11-15T05:43:54;97473.69;;;3.32;78.09
26083;BME280;13848;49.018;12.078;2022-11-15T05:46:21;97463.69;;;3.34;77.91
26083;BME280;13848;49.018;12.078;2022-11-15T05:48:50;97463.03;;;3.32;77.92
26083;BME280;13848;49.018;12.078;2022-11-15T05:51:19;97474.25;;;3.28;77.91
26083;BME280;13848;49.018;12.078;2022-11-15T05:53:47;97472.41;;;3.28;77.84
26083;BME280;13848;49.018;12.078;2022-11-15T05:56:13;97476.25;;;3.26;78.10
26083;BME280;13848;49.018;12.078;2022-11-15T05:58:40;97471.38;;;3.29;77.99
26083;BME280;13848;49.018;12.078;2022-11-15T06:01:06;97471.75;;;3.26;78.19
26083;BME280;13848;49.018;12.078;2022-11-15T06:03:34;97464.13;;;3.23;78.09
26083;BME280;13848;49.018;12.078;2022-11-15T06:06:00;97456.94;;;3.24;78.12
26083;BME280;13848;49.018;12.078;2022-11-15T06:08:26;97457.78;;;3.24;78.27
26083;BME280;13848;49.018;12.078;2022-11-15T06:10:52;97462.47;;;3.22;77.95
26083;BME280;13848;49.018;12.078;2022-11-15T06:13:18;97460.34;;;3.17;78.05
26083;BME280;13848;49.018;12.078;2022-11-15T06:15:44;97465.66;;;3.17;78.30
26083;BME280;13848;49.018;12.078;2022-11-15T06:18:10;97460.34;;;3.17;78.27
26083;BME280;13848;49.018;12.078;2022-11-15T06:20:38;97464.56;;;3.12;77.94
26083;BME280;13848;49.018;12.078;2022-11-15T06:23:04;97469.72;;;3.13;77.90
26083;BME280;13848;49.018;12.078;2022-11-15T06:25:30;97461.88;;;3.12;78.27
26083;BME280;13848;49.018;12.078;2022-11-15T06:27:57;97460.53;;;3.16;78.31
26083;BME280;13848;49.018;12.078;2022-11-15T06:30:25;97453.84;;;3.20;78.41
26083;BME280;13848;49.018;12.078;2022-11-15T06:32:51;97458.69;;;3.16;78.05
26083;BME280;13848;49.018;12.078;2022-11-15T06:35:17;97450.50;;;3.18;78.35
26083;BME280;13848;49.018;12.078;2022-11-15T06:37:45;97446.78;;;3.27;78.67
26083;BME280;13848;49.018;12.078;2022-11-15T06:40:11;97450.00;;;3.37;78.46
26083;BME280;13848;49.018;12.078;2022-11-15T06:42:37;97438.16;;;3.40;78.57
26083;BME280;13848;49.018;12.078;2022-11-15T06:45:04;97445.94;;;3.41;78.74
26083;BME280;13848;49.018;12.078;2022-11-15T06:47:30;97455.88;;;3.47;78.55
26083;BME280;13848;49.018;12.078;2022-11-15T06:49:56;97449.81;;;3.54;78.21
26083;BME280;13848;49.018;12.078;2022-11-15T06:52:22;97450.28;;;3.57;78.03
26083;BME280;13848;49.018;12.078;2022-11-15T06:54:49;97454.22;;;3.46;77.98
26083;BME280;13848;49.018;12.078;2022-11-15T06:57:15;97456.25;;;3.44;78.21
26083;BME280;13848;49.018;12.078;2022-11-15T06:59:41;97462.50;;;3.52;78.00
26083;BME280;13848;49.018;12.078;2022-11-15T07:02:11;97473.63;;;3.55;78.17
26083;BME280;13848;49.018;12.078;2022-11-15T07:04:38;97472.25;;;3.59;78.13
26083;BME280;13848;49.018;12.078;2022-11-15T07:07:04;97475.56;;;3.61;78.44
26083;BME280;13848;49.018;12.078;2022-11-15T07:09:30;97479.53;;;3.65;78.97
26083;BME280;13848;49.018;12.078;2022-11-15T07:11:57;97476.13;;;3.71;78.72
26083;BME280;13848;49.018;12.078;2022-11-15T07:14:23;97477.78;;;3.87;78.18
26083;BME280;13848;49.018;12.078;2022-11-15T07:16:49;97476.28;;;3.99;78.60
26083;BME280;13848;49.018;12.078;2022-11-15T07:19:15;97470.34;;;4.34;77.35
26083;BME280;13848;49.018;12.078;2022-11-15T07:21:41;97466.09;;;4.54;77.80
26083;BME280;13848;49.018;12.078;2022-11-15T07:24:07;97458.91;;;4.97;77.89
26083;BME280;13848;49.018;12.078;2022-11-15T07:26:33;97463.84;;;5.22;76.27
26083;BME280;13848;49.018;12.078;2022-11-15T07:29:00;97462.16;;;5.42;75.07
26083;BME280;13848;49.018;12.078;2022-11-15T07:31:26;97459.88;;;5.74;75.04
26083;BME280;13848;49.018;12.078;2022-11-15T07:33:52;97453.22;;;5.91;73.43
26083;BME280;13848;49.018;12.078;2022-11-15T07:36:18;97450.63;;;6.04;74.08
26083;BME280;13848;49.018;12.078;2022-11-15T07:38:44;97449.06;;;6.30;73.39
26083;BME280;13848;49.018;12.078;2022-11-15T07:41:10;97457.44;;;6.61;73.56
26083;BME280;13848;49.018;12.078;2022-11-15T07:43:36;97455.44;;;6.90;72.31
26083;BME280;13848;49.018;12.078;2022-11-15T07:46:06;97450.09;;;7.36;72.73
26083;BME280;13848;49.018;12.078;2022-11-15T07:48:32;97447.00;;;7.33;71.52
26083;BME280;13848;49.018;12.078;2022-11-15T07:50:58;97449.25;;;7.49;71.22
26083;BME280;13848;49.018;12.078;2022-11-15T07:53:24;97450.41;;;7.86;70.37
26083;BME280;13848;49.018;12.078;2022-11-15T07:55:50;97443.00;;;8.53;71.70
26083;BME280;13848;49.018;12.078;2022-11-15T07:58:16;97432.94;;;9.73;68.71
26083;BME280;13848;49.018;12.078;2022-11-15T08:00:42;97435.34;;;9.63;68.17
26083;BME280;13848;49.018;12.078;2022-11-15T08:03:11;97431.69;;;9.76;68.20
26083;BME280;13848;49.018;12.078;2022-11-15T08:05:38;97427.16;;;9.95;67.84
26083;BME280;13848;49.018;12.078;2022-11-15T08:08:05;97432.69;;;10.18;67.39
26083;BME280;13848;49.018;12.078;2022-11-15T08:10:32;97432.94;;;10.35;67.01
26083;BME280;13848;49.018;12.078;2022-11-15T08:12:59;97428.56;;;10.82;66.64
26083;BME280;13848;49.018;12.078;2022-11-15T08:15:25;97432.84;;;11.02;65.69
26083;BME280;13848;49.018;12.078;2022-11-15T08:17:55;97431.03;;;11.37;65.25
26083;BME280;13848;49.018;12.078;2022-11-15T08:20:23;97431.38;;;11.53;64.78
26083;BME280;13848;49.018;12.078;2022-11-15T08:22:49;97432.00;;;11.66;61.47
26083;BME280;13848;49.018;12.078;2022-11-15T08:25:15;97433.88;;;11.66;63.17
26083;BME280;13848;49.018;12.078;2022-11-15T08:27:41;97435.06;;;11.93;60.62
26083;BME280;13848;49.018;12.078;2022-11-15T08:30:07;97424.38;;;11.87;61.14
26083;BME280;13848;49.018;12.078;2022-11-15T08:32:33;97427.84;;;12.22;61.90
26083;BME280;13848;49.018;12.078;2022-11-15T08:34:59;97430.63;;;12.39;60.04
26083;BME280;13848;49.018;12.078;2022-11-15T08:37:27;97420.03;;;12.78;59.76
26083;BME280;13848;49.018;12.078;2022-11-15T08:39:53;97420.16;;;13.00;59.02
26083;BME280;13848;49.018;12.078;2022-11-15T08:42:19;97420.50;;;13.20;60.64
26083;BME280;13848;49.018;12.078;2022-11-15T08:44:45;97429.13;;;13.68;59.52
26083;BME280;13848;49.018;12.078;2022-11-15T08:47:11;97417.09;;;13.97;58.72
26083;BME280;13848;49.018;12.078;2022-11-15T08:49:37;97419.09;;;14.24;57.97
26083;BME280;13848;49.018;12.078;2022-11-15T08:52:03;97413.69;;;14.46;57.74
26083;BME280;13848;49.018;12.078;2022-11-15T08:54:31;97406.38;;;14.68;56.37
26083;BME280;13848;49.018;12.078;2022-11-15T08:56:57;97406.56;;;15.15;56.34
26083;BME280;13848;49.018;12.078;2022-11-15T08:59:23;97402.28;;;15.25;53.09
26083;BME280;13848;49.018;12.078;2022-11-15T09:01:49;97411.19;;;14.88;52.82
26083;BME280;13848;49.018;12.078;2022-11-15T09:04:15;97400.69;;;14.97;52.34
26083;BME280;13848;49.018;12.078;2022-11-15T09:06:41;97392.84;;;15.00;52.04
26083;BME280;13848;49.018;12.078;2022-11-15T09:09:07;97397.88;;;15.13;52.66
26083;BME280;13848;49.018;12.078;2022-11-15T09:11:34;97389.91;;;15.39;51.92
26083;BME280;13848;49.018;12.078;2022-11-15T09:14:00;97387.47;;;15.75;51.94
26083;BME280;13848;49.018;12.078;2022-11-15T09:16:26;97389.00;;;16.03;51.96
26083;BME280;13848;49.018;12.078;2022-11-15T09:18:52;97384.50;;;16.29;51.69
26083;BME280;13848;49.018;12.078;2022-11-15T09:21:18;97371.81;;;16.55;50.82
26083;BME280;13848;49.018;12.078;2022-11-15T09:23:44;97359.03;;;16.55;49.03
26083;BME280;13848;49.018;12.078;2022-11-15T09:26:10;97361.22;;;16.63;49.10
26083;BME280;13848;49.018;12.078;2022-11-15T09:28:37;97364.06;;;16.94;49.56
26083;BME280;13848;49.018;12.078;2022-11-15T09:31:05;97359.41;;;17.05;48.10
26083;BME280;13848;49.018;12.078;2022-11-15T09:33:31;97354.78;;;17.41;49.37
26083;BME280;13848;49.018;12.078;2022-11-15T09:36:00;97359.34;;;17.91;47.55
26083;BME280;13848;49.018;12.078;2022-11-15T09:38:26;97359.66;;;17.85;46.74
26083;BME280;13848;49.018;12.078;2022-11-15T09:41:05;97353.66;;;17.67;44.81
26083;BME280;13848;49.018;12.078;2022-11-15T09:43:42;97359.69;;;17.64;45.41
26083;BME280;13848;49.018;12.078;2022-11-15T09:46:15;97366.22;;;17.78;45.19
26083;BME280;13848;49.018;12.078;2022-11-15T09:48:49;97357.94;;;18.14;44.52
26083;BME280;13848;49.018;12.078;2022-11-15T09:51:25;97354.69;;;18.02;44.42
26083;BME280;13848;49.018;12.078;2022-11-15T09:53:58;97358.16;;;18.28;44.17
26083;BME280;13848;49.018;12.078;2022-11-15T09:56:27;97349.59;;;18.50;43.33
26083;BME280;13848;49.018;12.078;2022-11-15T09:59:11;97342.78;;;18.97;42.68
26083;BME280;13848;49.018;12.078;2022-11-15T10:01:44;97349.72;;;19.18;42.74
26083;BME280;13848;49.018;12.078;2022-11-15T10:04:15;97346.88;;;19.33;40.97
26083;BME280;13848;49.018;12.078;2022-11-15T10:06:44;97341.28;;;19.49;42.73
26083;BME280;13848;49.018;12.078;2022-11-15T10:09:16;97351.13;;;19.50;41.25
26083;BME280;13848;49.018;12.078;2022-11-15T10:11:42;97342.81;;;19.89;42.79
26083;BME280;13848;49.018;12.078;2022-11-15T10:14:13;97333.16;;;20.20;41.05
26083;BME280;13848;49.018;12.078;2022-11-15T10:19:50;97316.72;;;20.20;40.36
26083;BME280;13848;49.018;12.078;2022-11-15T10:22:25;97313.56;;;20.32;39.93
26083;BME280;13848;49.018;12.078;2022-11-15T10:25:00;97297.72;;;20.72;39.58
26083;BME280;13848;49.018;12.078;2022-11-15T10:27:35;97295.09;;;20.62;39.54
26083;BME280;13848;49.018;12.078;2022-11-15T10:30:04;97288.16;;;20.88;38.93
26083;BME280;13848;49.018;12.078;2022-11-15T10:32:36;97278.81;;;20.89;38.87
26083;BME280;13848;49.018;12.078;2022-11-15T10:35:16;97273.59;;;21.07;38.22
26083;BME280;13848;49.018;12.078;2022-11-15T10:37:42;97267.50;;;21.42;38.27
26083;BME280;13848;49.018;12.078;2022-11-15T10:40:17;97262.22;;;21.32;37.61
26083;BME280;13848;49.018;12.078;2022-11-15T10:42:43;97256.34;;;21.20;37.88
26083;BME280;13848;49.018;12.078;2022-11-15T10:45:23;97254.91;;;21.09;38.32
26083;BME280;13848;49.018;12.078;2022-11-15T10:47:49;97243.38;;;21.72;37.93
26083;BME280;13848;49.018;12.078;2022-11-15T10:50:27;97241.00;;;22.07;37.05
26083;BME280;13848;49.018;12.078;2022-11-15T10:52:54;97227.91;;;21.76;37.38
26083;BME280;13848;49.018;12.078;2022-11-15T10:55:24;97230.88;;;22.21;36.80
26083;BME280;13848;49.018;12.078;2022-11-15T10:57:53;97227.81;;;21.95;37.30
26083;BME280;13848;49.018;12.078;2022-11-15T11:00:30;97213.97;;;22.27;36.60
26083;BME280;13848;49.018;12.078;2022-11-15T11:02:59;97208.53;;;22.36;35.86
26083;BME280;13848;49.018;12.078;2022-11-15T11:05:28;97212.09;;;22.37;35.60
26083;BME280;13848;49.018;12.078;2022-11-15T11:07:56;97206.38;;;22.47;35.49
26083;BME280;13848;49.018;12.078;2022-11-15T11:10:22;97202.06;;;22.77;36.23
26083;BME280;13848;49.018;12.078;2022-11-15T11:12:48;97204.28;;;22.89;34.89
26083;BME280;13848;49.018;12.078;2022-11-15T11:15:15;97198.22;;;23.00;34.88
26083;BME280;13848;49.018;12.078;2022-11-15T11:17:55;97194.84;;;23.03;35.33
26083;BME280;13848;49.018;12.078;2022-11-15T11:20:26;97191.78;;;23.76;34.23
26083;BME280;13848;49.018;12.078;2022-11-15T11:23:03;97193.34;;;22.97;33.71
26083;BME280;13848;49.018;12.078;2022-11-15T11:25:34;97182.91;;;23.39;34.33
26083;BME280;13848;49.018;12.078;2022-11-15T11:28:17;97174.50;;;23.44;33.72
26083;BME280;13848;49.018;12.078;2022-11-15T11:30:51;97175.75;;;23.07;33.49
26083;BME280;13848;49.018;12.078;2022-11-15T11:33:26;97164.25;;;23.76;34.14
26083;BME280;13848;49.018;12.078;2022-11-15T11:36:03;97167.22;;;23.88;33.58
26083;BME280;13848;49.018;12.078;2022-11-15T11:38:58;97162.97;;;23.82;33.23
26083;BME280;13848;49.018;12.078;2022-11-15T11:41:53;97150.72;;;24.23;32.78
26083;BME280;13848;49.018;12.078;2022-11-15T11:44:42;97145.88;;;24.20;33.34
26083;BME280;13848;49.018;12.078;2022-11-15T11:47:11;97149.78;;;24.62;31.25
26083;BME280;13848;49.018;12.078;2022-11-15T11:49:44;97148.47;;;24.25;31.66
26083;BME280;13848;49.018;12.078;2022-11-15T11:52:16;97142.97;;;24.25;32.41
26083;BME280;13848;49.018;12.078;2022-11-15T11:54:49;97136.47;;;24.64;32.42
26083;BME280;13848;49.018;12.078;2022-11-15T11:57:25;97130.50;;;25.26;31.71
26083;BME280;13848;49.018;12.078;2022-11-15T11:59:59;97114.50;;;25.49;30.76
26083;BME280;13848;49.018;12.078;2022-11-15T12:02:29;97126.88;;;25.43;30.25
26083;BME280;13848;49.018;12.078;2022-11-15T12:05:04;97123.84;;;25.65;30.54
26083;BME280;13848;49.018;12.078;2022-11-15T12:07:34;97115.63;;;25.18;30.17
26083;BME280;13848;49.018;12.078;2022-11-15T12:10:05;97116.41;;;25.57;29.34
26083;BME280;13848;49.018;12.078;2022-11-15T12:12:43;97106.13;;;25.96;30.55
26083;BME280;13848;49.018;12.078;2022-11-15T12:15:14;97105.38;;;25.57;31.40
26083;BME280;13848;49.018;12.078;2022-11-15T12:17:42;97096.97;;;25.45;32.84
26083;BME280;13848;49.018;12.078;2022-11-15T12:20:16;97093.59;;;26.19;31.26
26083;BME280;13848;49.018;12.078;2022-11-15T12:22:48;97086.16;;;26.53;30.57
26083;BME280;13848;49.018;12.078;2022-11-15T12:25:18;97089.91;;;25.65;30.75
26083;BME280;13848;49.018;12.078;2022-11-15T12:27:49;97083.19;;;24.98;31.52
26083;BME280;13848;49.018;12.078;2022-11-15T12:30:18;97085.28;;;24.37;31.13
26083;BME280;13848;49.018;12.078;2022-11-15T12:32:51;97077.00;;;25.18;32.32
26083;BME280;13848;49.018;12.078;2022-11-15T12:35:25;97066.31;;;25.67;31.49
26083;BME280;13848;49.018;12.078;2022-11-15T12:37:53;97065.53;;;24.99;30.75
26083;BME280;13848;49.018;12.078;2022-11-15T12:40:27;97065.66;;;24.30;32.52
26083;BME280;13848;49.018;12.078;2022-11-15T12:43:01;97061.59;;;24.53;32.39
26083;BME280;13848;49.018;12.078;2022-11-15T12:45:29;97062.75;;;24.35;32.62
26083;BME280;13848;49.018;12.078;2022-11-15T12:50:55;97050.59;;;24.19;32.99
26083;BME280;13848;49.018;12.078;2022-11-15T12:53:29;97051.72;;;24.35;33.29
26083;BME280;13848;49.018;12.078;2022-11-15T12:56:22;97057.72;;;23.85;33.70
26083;BME280;13848;49.018;12.078;2022-11-15T12:58:51;97042.50;;;24.05;33.09
26083;BME280;13848;49.018;12.078;2022-11-15T13:01:55;97039.03;;;23.39;33.22
26083;BME280;13848;49.018;12.078;2022-11-15T13:04:24;97045.66;;;22.67;34.40
26083;BME280;13848;49.018;12.078;2022-11-15T13:06:53;97041.47;;;21.43;35.22
26083;BME280;13848;49.018;12.078;2022-11-15T13:09:51;97045.66;;;21.13;36.68
26083;BME280;13848;49.018;12.078;2022-11-15T13:12:48;97040.03;;;21.60;35.97